createdAt,value
2023-03-24T00:01:40.872Z,100818.92
2023-03-24T00:04:10.262Z,100817.20
2023-03-24T00:06:39.782Z,100814.77
2023-03-24T00:09:08.926Z,100818.62
2023-03-24T00:11:38.985Z,100813.71
2023-03-24T00:14:11.665Z,100815.65
2023-03-24T00:16:42.197Z,100815.64
2023-03-24T00:19:14.282Z,100812.16
2023-03-24T00:21:44.902Z,100816.36
2023-03-24T00:24:14.595Z,100813.20
2023-03-24T00:26:43.786Z,100814.78
2023-03-24T00:29:13.160Z,100817.59
2023-03-24T00:31:42.851Z,100814.10
2023-03-24T00:34:13.124Z,100810.61
2023-03-24T00:36:42.280Z,100813.21
2023-03-24T00:39:11.674Z,100820.56
2023-03-24T00:41:44.681Z,100823.70
2023-03-24T00:44:17.464Z,100820.73
2023-03-24T00:46:55.536Z,100820.04
2023-03-24T00:49:41.922Z,100819.69
2023-03-24T00:52:12.696Z,100820.02
2023-03-24T00:54:42.846Z,100815.33
2023-03-24T00:57:14.188Z,100809.38
2023-03-24T00:59:48.799Z,100807.26
2023-03-24T01:02:21.720Z,100811.65
2023-03-24T01:04:55.835Z,100810.59
2023-03-24T01:07:27.691Z,100812.16
2023-03-24T01:09:58.123Z,100813.22
2023-03-24T01:12:31.458Z,100813.91
2023-03-24T01:15:05.158Z,100821.43
2023-03-24T01:17:34.556Z,100828.78
2023-03-24T01:20:07.503Z,100834.20
2023-03-24T01:22:39.382Z,100845.05
2023-03-24T01:25:11.861Z,100854.81
2023-03-24T01:27:41.198Z,100853.42
2023-03-24T01:30:14.293Z,100836.12
2023-03-24T01:32:47.064Z,100827.39
2023-03-24T01:35:16.850Z,100822.48
2023-03-24T01:37:45.996Z,100808.34
2023-03-24T01:40:19.447Z,100783.87
2023-03-24T01:42:48.950Z,100774.09
2023-03-24T01:45:58.264Z,100774.27
2023-03-24T01:48:33.927Z,100775.64
2023-03-24T01:51:07.354Z,100776.67
2023-03-24T01:53:42.414Z,100770.39
2023-03-24T01:56:12.288Z,100761.31
2023-03-24T01:58:48.342Z,100759.04
2023-03-24T02:01:19.014Z,100751.52
2023-03-24T02:03:49.125Z,100743.67
2023-03-24T02:06:19.673Z,100744.02
2023-03-24T02:08:54.498Z,100749.80
2023-03-24T02:11:30.678Z,100752.25
2023-03-24T02:33:28.333Z,100778.59
2023-03-24T02:36:28.041Z,100780.02
2023-03-24T02:39:32.704Z,100775.11
2023-03-24T02:42:12.012Z,100777.55
2023-03-24T02:44:48.146Z,100776.34
2023-03-24T02:47:24.373Z,100778.43
2023-03-24T02:50:03.988Z,100780.00
2023-03-24T02:52:35.478Z,100779.48
2023-03-24T02:55:12.472Z,100778.60
2023-03-24T02:57:48.826Z,100778.59
2023-03-24T03:00:26.502Z,100771.43
2023-03-24T03:03:02.311Z,100773.36
2023-03-24T03:05:37.178Z,100769.17
2023-03-24T03:08:09.996Z,100774.75
2023-03-24T03:10:43.257Z,100774.23
2023-03-24T03:13:21.208Z,100774.56
2023-03-24T03:15:55.063Z,100771.77
2023-03-24T03:18:32.931Z,100768.12
2023-03-24T03:21:06.924Z,100775.11
2023-03-24T03:23:38.646Z,100775.45
2023-03-24T03:26:13.083Z,100778.77
2023-03-24T03:28:49.300Z,100778.61
2023-03-24T03:31:23.847Z,100773.89
2023-03-24T03:33:58.735Z,100774.41
2023-03-24T03:36:33.429Z,100773.19
2023-03-24T03:39:10.585Z,100768.31
2023-03-24T03:41:40.421Z,100763.23
2023-03-24T03:44:10.152Z,100762.54
2023-03-24T03:46:39.569Z,100764.63
2023-03-24T03:49:09.721Z,100755.89
2023-03-24T03:51:39.368Z,100757.46
2023-03-24T03:54:11.620Z,100758.15
2023-03-24T03:56:41.990Z,100764.10
2023-03-24T03:59:26.963Z,100766.55
2023-03-24T04:01:57.852Z,100769.86
2023-03-24T04:04:59.751Z,100775.63
2023-03-24T04:07:42.241Z,100778.95
2023-03-24T04:10:21.240Z,100778.95
2023-03-24T04:13:07.587Z,100782.27
2023-03-24T04:15:42.948Z,100783.14
2023-03-24T04:18:31.788Z,100778.60
2023-03-24T04:21:27.743Z,100778.42
2023-03-24T04:24:13.696Z,100786.45
2023-03-24T04:26:53.948Z,100795.70
2023-03-24T04:29:36.500Z,100800.92
2023-03-24T04:32:18.987Z,100801.27
2023-03-24T04:34:53.771Z,100808.10
2023-03-24T04:37:26.744Z,100806.36
2023-03-24T04:39:59.590Z,100808.80
2023-03-24T04:42:35.496Z,100814.23
2023-03-24T04:45:05.981Z,100813.52
2023-03-24T04:47:49.388Z,100823.31
2023-03-24T04:50:30.306Z,100823.98
2023-03-24T04:53:01.320Z,100822.77
2023-03-24T04:55:50.922Z,100822.94
2023-03-24T04:58:31.780Z,100825.20
2023-03-24T05:01:02.749Z,100825.04
2023-03-24T05:03:31.943Z,100822.40
2023-03-24T05:06:01.092Z,100822.77
2023-03-24T05:08:30.468Z,100817.53
2023-03-24T05:11:01.095Z,100814.21
2023-03-24T05:13:32.044Z,100812.30
2023-03-24T05:16:01.525Z,100815.11
2023-03-24T05:18:30.889Z,100814.92
2023-03-24T05:21:00.636Z,100816.33
2023-03-24T05:23:30.213Z,100819.48
2023-03-24T05:26:00.185Z,100823.84
2023-03-24T05:28:30.551Z,100825.25
2023-03-24T05:31:01.034Z,100830.84
2023-03-24T05:33:30.897Z,100828.23
2023-03-24T05:36:00.430Z,100826.65
2023-03-24T05:38:37.604Z,100830.52
2023-03-24T05:41:08.879Z,100828.61
2023-03-24T05:43:38.084Z,100827.92
2023-03-24T05:46:08.325Z,100829.48
2023-03-24T05:48:37.539Z,100836.83
2023-03-24T05:51:07.992Z,100835.23
2023-03-24T05:53:40.213Z,100833.48
2023-03-24T05:56:15.030Z,100838.91
2023-03-24T05:58:45.496Z,100841.88
2023-03-24T06:01:18.028Z,100841.70
2023-03-24T06:03:48.985Z,100841.88
2023-03-24T06:06:18.680Z,100840.30
2023-03-24T06:08:47.933Z,100838.70
2023-03-24T06:11:17.066Z,100834.14
2023-03-24T06:13:46.585Z,100835.19
2023-03-24T06:16:18.358Z,100835.89
2023-03-24T06:18:51.944Z,100838.15
2023-03-24T06:21:21.833Z,100838.31
2023-03-24T06:23:51.686Z,100841.80
2023-03-24T06:26:20.753Z,100843.52
2023-03-24T06:28:51.517Z,100848.23
2023-03-24T06:31:21.782Z,100848.92
2023-03-24T06:33:52.526Z,100842.45
2023-03-24T06:36:23.124Z,100842.25
2023-03-24T06:38:53.865Z,100843.78
2023-03-24T06:41:35.796Z,100845.52
2023-03-24T06:44:05.079Z,100845.13
2023-03-24T06:46:34.439Z,100850.52
2023-03-24T06:49:04.369Z,100849.80
2023-03-24T06:51:33.736Z,100850.98
2023-03-24T06:54:03.605Z,100849.40
2023-03-24T06:56:34.422Z,100848.31
2023-03-24T06:59:04.010Z,100848.63
2023-03-24T07:01:34.581Z,100844.56
2023-03-24T07:04:04.125Z,100844.34
2023-03-24T07:06:40.420Z,100842.34
2023-03-24T07:09:13.292Z,100842.27
2023-03-24T07:11:45.973Z,100841.50
2023-03-24T07:14:15.471Z,100848.10
2023-03-24T07:16:44.817Z,100845.41
2023-03-24T07:19:13.869Z,100844.64
2023-03-24T07:21:43.749Z,100844.02
2023-03-24T07:24:12.950Z,100845.65
2023-03-24T07:26:42.093Z,100847.48
2023-03-24T07:29:13.344Z,100845.63
2023-03-24T07:31:42.626Z,100839.05
2023-03-24T07:34:11.729Z,100839.50
2023-03-24T07:36:41.029Z,100836.41
2023-03-24T07:39:10.243Z,100838.95
2023-03-24T07:41:39.416Z,100837.11
2023-03-24T07:44:09.223Z,100837.03
2023-03-24T07:46:38.556Z,100839.94
2023-03-24T07:49:18.221Z,100839.02
2023-03-24T07:51:48.728Z,100833.45
2023-03-24T07:54:18.214Z,100829.65
2023-03-24T07:56:47.348Z,100829.23
2023-03-24T07:59:17.340Z,100831.56
2023-03-24T08:01:51.317Z,100828.31
2023-03-24T08:04:23.918Z,100828.92
2023-03-24T08:06:53.520Z,100826.58
2023-03-24T08:09:23.649Z,100827.02
2023-03-24T08:11:52.995Z,100826.71
2023-03-24T08:14:22.967Z,100831.96
2023-03-24T08:16:53.233Z,100835.14
2023-03-24T08:19:22.775Z,100833.70
2023-03-24T08:21:51.914Z,100832.91
2023-03-24T08:24:20.873Z,100831.08
2023-03-24T08:26:50.198Z,100825.54
2023-03-24T08:29:19.180Z,100819.64
2023-03-24T08:31:48.380Z,100820.81
2023-03-24T08:34:18.678Z,100816.12
2023-03-24T08:36:48.469Z,100815.29
2023-03-24T08:39:17.687Z,100824.90
2023-03-24T08:41:49.593Z,100818.61
2023-03-24T08:44:18.856Z,100824.78
2023-03-24T08:46:48.272Z,100821.94
2023-03-24T08:49:18.692Z,100821.80
2023-03-24T08:51:47.981Z,100822.73
2023-03-24T08:54:17.302Z,100824.40
2023-03-24T08:56:46.936Z,100812.14
2023-03-24T08:59:16.367Z,100809.86
2023-03-24T09:01:45.535Z,100807.89
2023-03-24T09:04:15.143Z,100806.85
2023-03-24T09:06:44.426Z,100805.05
2023-03-24T09:09:13.733Z,100803.70
2023-03-24T09:11:42.971Z,100807.64
2023-03-24T09:14:12.195Z,100807.23
2023-03-24T09:16:43.420Z,100804.68
2023-03-24T09:19:12.897Z,100800.66
2023-03-24T09:21:42.588Z,100799.84
2023-03-24T09:24:11.719Z,100805.69
2023-03-24T09:26:41.206Z,100798.52
2023-03-24T09:29:10.422Z,100797.71
2023-03-24T09:31:39.599Z,100795.22
2023-03-24T09:34:09.380Z,100793.27
2023-03-24T09:36:38.400Z,100794.77
2023-03-24T09:39:08.243Z,100790.17
2023-03-24T09:41:37.931Z,100794.41
2023-03-24T09:44:14.062Z,100792.51
2023-03-24T09:46:47.712Z,100786.84
2023-03-24T09:49:24.800Z,100785.36
2023-03-24T09:51:57.187Z,100779.79
2023-03-24T09:54:37.676Z,100777.11
2023-03-24T09:57:16.643Z,100775.52
2023-03-24T09:59:45.801Z,100778.50
2023-03-24T10:02:18.206Z,100775.63
2023-03-24T10:04:47.908Z,100776.14
2023-03-24T10:07:25.150Z,100773.54
2023-03-24T10:09:59.473Z,100771.33
2023-03-24T10:12:36.886Z,100765.63
2023-03-24T10:15:24.343Z,100767.98
2023-03-24T10:18:19.439Z,100765.14
2023-03-24T10:20:54.745Z,100761.19
2023-03-24T10:23:33.112Z,100766.76
2023-03-24T10:26:09.388Z,100754.30
2023-03-24T10:28:45.037Z,100760.61
2023-03-24T10:31:17.626Z,100753.86
2023-03-24T10:33:49.227Z,100751.42
2023-03-24T10:36:20.943Z,100750.49
2023-03-24T10:38:50.562Z,100742.95
2023-03-24T10:41:21.965Z,100739.58
2023-03-24T10:43:52.716Z,100742.98
2023-03-24T10:46:25.614Z,100742.90
2023-03-24T10:49:08.143Z,100738.34
2023-03-24T10:51:37.911Z,100742.98
2023-03-24T10:54:16.801Z,100735.48
2023-03-24T10:56:48.287Z,100730.45
2023-03-24T10:59:22.814Z,100722.77
2023-03-24T11:01:56.476Z,100714.20
2023-03-24T11:04:26.660Z,100715.05
2023-03-24T11:07:15.379Z,100712.63
2023-03-24T11:09:46.478Z,100708.27
2023-03-24T11:12:23.572Z,100705.60
2023-03-24T11:15:10.458Z,100693.84
2023-03-24T11:17:48.527Z,100689.38
2023-03-24T11:20:37.655Z,100688.54
2023-03-24T11:23:11.387Z,100679.16
2023-03-24T11:25:42.343Z,100670.20
2023-03-24T11:28:18.221Z,100667.84
2023-03-24T11:30:51.143Z,100667.67
2023-03-24T11:33:35.541Z,100669.20
2023-03-24T11:36:31.019Z,100663.63
2023-03-24T11:39:04.337Z,100662.03
2023-03-24T11:41:42.107Z,100656.40
2023-03-24T11:44:23.080Z,100654.48
2023-03-24T11:46:57.135Z,100651.52
2023-03-24T11:49:34.833Z,100651.34
2023-03-24T11:52:09.916Z,100651.23
2023-03-24T11:54:39.984Z,100644.80
2023-03-24T11:57:17.243Z,100640.87
2023-03-24T11:59:57.401Z,100639.11
2023-03-24T12:02:43.974Z,100642.70
2023-03-24T12:05:26.749Z,100639.60
2023-03-24T12:08:18.205Z,100645.02
2023-03-24T12:11:01.006Z,100637.42
2023-03-24T12:13:37.432Z,100627.42
2023-03-24T12:16:32.645Z,100620.28
2023-03-24T12:19:36.729Z,100624.89
2023-03-24T12:22:20.608Z,100615.89
2023-03-24T12:25:18.575Z,100612.08
2023-03-24T12:27:56.472Z,100602.67
2023-03-24T12:30:31.604Z,100602.34
2023-03-24T12:33:14.972Z,100600.29
2023-03-24T12:35:56.536Z,100591.11
2023-03-24T12:38:41.113Z,100592.02
2023-03-24T12:41:31.173Z,100594.48
2023-03-24T12:44:17.671Z,100585.64
2023-03-24T12:46:54.172Z,100582.95
2023-03-24T12:49:46.901Z,100579.48
2023-03-24T12:52:32.528Z,100582.15
2023-03-24T12:55:08.880Z,100576.52
2023-03-24T12:57:42.812Z,100572.81
2023-03-24T13:00:18.544Z,100566.49
2023-03-24T13:02:52.209Z,100556.70
2023-03-24T13:05:27.036Z,100551.39
2023-03-24T13:08:02.650Z,100552.40
2023-03-24T13:10:39.855Z,100548.80
2023-03-24T13:13:17.258Z,100549.67
2023-03-24T13:15:49.909Z,100545.83
2023-03-24T13:18:28.338Z,100545.80
2023-03-24T13:21:03.409Z,100540.46
2023-03-24T13:23:40.754Z,100539.53
2023-03-24T13:26:18.862Z,100537.88
2023-03-24T13:29:01.080Z,100541.71
2023-03-24T13:31:36.625Z,100529.81
2023-03-24T13:34:13.162Z,100529.56
2023-03-24T13:36:49.001Z,100519.26
2023-03-24T13:39:21.567Z,100516.58
2023-03-24T13:41:53.552Z,100518.29
2023-03-24T13:44:28.455Z,100517.69
2023-03-24T13:47:16.172Z,100510.24
2023-03-24T13:49:54.002Z,100512.92
2023-03-24T13:52:31.590Z,100504.79
2023-03-24T13:55:08.518Z,100504.14
2023-03-24T13:57:41.902Z,100503.04
2023-03-24T14:00:22.731Z,100505.96
2023-03-24T14:02:54.666Z,100504.91
2023-03-24T14:06:02.229Z,100501.26
2023-03-24T14:08:55.920Z,100494.64
2023-03-24T14:12:08.492Z,100491.56
2023-03-24T14:15:12.748Z,100494.52
2023-03-24T14:17:45.484Z,100487.33
2023-03-24T14:20:32.542Z,100485.99
2023-03-24T14:23:04.166Z,100483.98
2023-03-24T14:25:36.261Z,100482.46
2023-03-24T14:28:22.971Z,100474.55
2023-03-24T14:31:09.392Z,100470.08
2023-03-24T14:33:39.288Z,100464.48
2023-03-24T14:36:12.460Z,100458.77
2023-03-24T14:38:44.747Z,100461.23
2023-03-24T14:41:23.252Z,100455.22
2023-03-24T14:43:58.983Z,100451.57
2023-03-24T14:46:41.373Z,100456.88
2023-03-24T14:49:24.561Z,100458.15
2023-03-24T14:52:02.027Z,100456.80
2023-03-24T14:54:38.034Z,100454.42
2023-03-24T14:57:08.934Z,100452.55
2023-03-24T14:59:47.038Z,100454.88
2023-03-24T15:02:28.516Z,100454.38
2023-03-24T15:05:22.883Z,100453.83
2023-03-24T15:08:15.352Z,100456.04
2023-03-24T15:10:49.857Z,100452.02
2023-03-24T15:13:32.225Z,100448.73
2023-03-24T15:16:05.202Z,100450.96
2023-03-24T15:18:34.845Z,100451.13
2023-03-24T15:21:15.848Z,100452.63
2023-03-24T15:23:49.017Z,100453.94
2023-03-24T15:26:22.226Z,100455.48
2023-03-24T15:28:59.926Z,100454.65
2023-03-24T15:31:31.652Z,100454.50
2023-03-24T15:34:08.406Z,100459.70
2023-03-24T15:36:45.080Z,100459.39
2023-03-24T15:39:24.816Z,100458.72
2023-03-24T15:41:56.321Z,100459.19
2023-03-24T15:44:28.426Z,100461.63
2023-03-24T15:46:59.676Z,100464.16
2023-03-24T15:49:34.856Z,100466.71
2023-03-24T15:52:22.510Z,100465.33
2023-03-24T15:54:54.526Z,100462.96
2023-03-24T15:57:25.068Z,100459.44
2023-03-24T16:00:12.567Z,100458.07
2023-03-24T16:02:51.802Z,100457.88
2023-03-24T16:05:23.822Z,100457.65
2023-03-24T16:08:03.177Z,100456.37
2023-03-24T16:10:39.420Z,100461.76
2023-03-24T16:13:20.410Z,100462.66
2023-03-24T16:15:58.417Z,100468.48
2023-03-24T16:18:33.239Z,100465.14
2023-03-24T16:21:09.992Z,100463.68
2023-03-24T16:23:41.795Z,100462.58
2023-03-24T16:26:13.857Z,100462.95
2023-03-24T16:28:43.256Z,100459.95
2023-03-24T16:31:25.458Z,100459.77
2023-03-24T16:33:59.849Z,100460.55
2023-03-24T16:36:29.430Z,100460.52
2023-03-24T16:39:01.859Z,100464.44
2023-03-24T16:41:35.120Z,100462.90
2023-03-24T16:44:05.207Z,100460.73
2023-03-24T16:46:36.460Z,100455.05
2023-03-24T16:49:08.220Z,100455.98
2023-03-24T16:51:37.541Z,100455.80
2023-03-24T16:54:08.700Z,100459.49
2023-03-24T16:56:41.864Z,100459.86
2023-03-24T16:59:14.262Z,100463.84
2023-03-24T17:01:45.343Z,100458.61
2023-03-24T17:04:17.379Z,100460.95
2023-03-24T17:06:48.564Z,100466.09
2023-03-24T17:09:18.476Z,100463.52
2023-03-24T17:11:51.355Z,100468.45
2023-03-24T17:14:21.121Z,100470.83
2023-03-24T17:16:52.113Z,100470.94
2023-03-24T17:19:23.446Z,100467.92
2023-03-24T17:21:58.188Z,100467.90
2023-03-24T17:24:28.158Z,100465.73
2023-03-24T17:26:57.431Z,100466.20
2023-03-24T17:29:26.852Z,100467.11
2023-03-24T17:31:56.605Z,100467.83
2023-03-24T17:34:25.636Z,100463.23
2023-03-24T17:36:55.175Z,100467.81
2023-03-24T17:39:24.818Z,100464.63
2023-03-24T17:41:57.146Z,100468.44
2023-03-24T17:44:26.986Z,100464.43
2023-03-24T17:46:56.713Z,100466.98
2023-03-24T17:49:28.130Z,100460.63
2023-03-24T17:51:58.104Z,100459.98
2023-03-24T17:54:27.542Z,100456.36
2023-03-24T17:57:11.061Z,100458.33
2023-03-24T17:59:47.456Z,100459.59
2023-03-24T18:02:20.804Z,100457.60
2023-03-24T18:04:58.650Z,100460.15
2023-03-24T18:07:28.406Z,100457.20
2023-03-24T18:09:57.819Z,100456.14
2023-03-24T18:12:27.962Z,100456.81
2023-03-24T18:14:57.177Z,100458.58
2023-03-24T18:17:26.904Z,100456.84
2023-03-24T18:19:59.030Z,100458.70
2023-03-24T18:22:28.609Z,100458.31
2023-03-24T18:24:57.836Z,100460.17
2023-03-24T18:27:27.614Z,100461.61
2023-03-24T18:29:57.169Z,100460.67
2023-03-24T18:32:28.354Z,100455.36
2023-03-24T18:35:00.268Z,100455.61
2023-03-24T18:37:34.704Z,100454.61
2023-03-24T18:40:07.911Z,100450.79
2023-03-24T18:42:38.510Z,100448.77
2023-03-24T18:45:16.715Z,100447.51
2023-03-24T18:47:47.221Z,100443.61
2023-03-24T18:50:17.765Z,100443.50
2023-03-24T18:52:49.035Z,100444.06
2023-03-24T18:55:20.169Z,100442.66
2023-03-24T18:57:50.316Z,100440.13
2023-03-24T19:00:21.637Z,100439.05
2023-03-24T19:02:51.840Z,100436.56
2023-03-24T19:05:21.744Z,100439.41
2023-03-24T19:07:51.763Z,100435.87
2023-03-24T19:10:21.907Z,100433.20
2023-03-24T19:12:51.374Z,100433.91
2023-03-24T19:15:21.288Z,100428.36
2023-03-24T19:17:50.877Z,100430.95
2023-03-24T19:20:20.816Z,100432.48
2023-03-24T19:22:50.225Z,100433.84
2023-03-24T19:25:19.744Z,100429.19
2023-03-24T19:27:49.895Z,100431.05
2023-03-24T19:30:19.885Z,100430.53
2023-03-24T19:32:49.918Z,100429.94
2023-03-24T19:35:19.418Z,100427.19
2023-03-24T19:37:49.584Z,100425.67
2023-03-24T19:40:19.044Z,100425.93
2023-03-24T19:42:48.371Z,100429.29
2023-03-24T19:45:19.259Z,100425.84
2023-03-24T19:47:48.765Z,100426.13
2023-03-24T19:50:18.884Z,100425.42
2023-03-24T19:52:48.005Z,100423.91
2023-03-24T19:55:18.699Z,100428.52
2023-03-24T19:57:48.532Z,100426.47
2023-03-24T20:00:19.438Z,100420.38
2023-03-24T20:02:49.914Z,100421.35
2023-03-24T20:05:19.368Z,100421.63
2023-03-24T20:07:49.040Z,100422.27
2023-03-24T20:10:20.862Z,100423.42
2023-03-24T20:12:55.247Z,100425.92
2023-03-24T20:15:33.208Z,100424.36
2023-03-24T20:18:03.684Z,100420.68
2023-03-24T20:20:33.867Z,100422.25
2023-03-24T20:23:03.926Z,100423.11
2023-03-24T20:25:34.199Z,100421.54
2023-03-24T20:28:04.389Z,100418.48
2023-03-24T20:30:34.474Z,100414.95
2023-03-24T20:33:04.915Z,100414.55
2023-03-24T20:35:36.500Z,100408.54
2023-03-24T20:38:06.788Z,100408.14
2023-03-24T20:40:36.886Z,100407.38
2023-03-24T20:43:06.975Z,100410.63
2023-03-24T20:45:37.364Z,100405.30
2023-03-24T20:48:08.270Z,100403.75
2023-03-24T20:50:37.613Z,100402.71
2023-03-24T20:53:08.565Z,100404.25
2023-03-24T20:55:38.316Z,100407.48
2023-03-24T20:58:08.113Z,100404.73
2023-03-24T21:00:41.335Z,100404.08
2023-03-24T21:03:11.880Z,100404.95
2023-03-24T21:05:41.610Z,100401.73
2023-03-24T21:08:11.001Z,100399.73
2023-03-24T21:10:40.503Z,100395.87
2023-03-24T21:13:10.029Z,100396.94
2023-03-24T21:15:47.574Z,100395.91
2023-03-24T21:18:17.309Z,100401.31
2023-03-24T21:20:55.013Z,100394.27
2023-03-24T21:23:27.043Z,100395.52
2023-03-24T21:25:56.180Z,100394.13
2023-03-24T21:28:27.920Z,100397.71
2023-03-24T21:30:57.934Z,100397.75
2023-03-24T21:33:27.539Z,100399.02
2023-03-24T21:35:57.824Z,100396.39
2023-03-24T21:38:28.169Z,100396.23
2023-03-24T21:41:00.256Z,100392.05
2023-03-24T21:43:30.144Z,100392.92
2023-03-24T21:46:14.343Z,100387.30
2023-03-24T21:48:49.579Z,100384.86
2023-03-24T21:51:23.487Z,100378.05
2023-03-24T21:53:54.895Z,100376.34
2023-03-24T21:56:24.161Z,100380.64
2023-03-24T21:58:54.502Z,100384.04
2023-03-24T22:01:24.647Z,100384.46
2023-03-24T22:03:55.236Z,100381.21
2023-03-24T22:06:24.796Z,100377.99
2023-03-24T22:08:57.658Z,100377.39
2023-03-24T22:11:27.224Z,100376.95
2023-03-24T22:13:56.541Z,100376.17
2023-03-24T22:16:25.666Z,100376.35
2023-03-24T22:18:56.724Z,100375.73
2023-03-24T22:21:26.938Z,100373.21
2023-03-24T22:23:56.624Z,100370.66
2023-03-24T22:26:26.245Z,100371.06
2023-03-24T22:28:55.977Z,100369.16
2023-03-24T22:31:25.795Z,100367.95
2023-03-24T22:33:55.777Z,100364.85
2023-03-24T22:36:25.618Z,100366.73
2023-03-24T22:38:55.234Z,100367.30
2023-03-24T22:41:24.594Z,100371.23
2023-03-24T22:43:54.716Z,100369.47
2023-03-24T22:46:25.608Z,100370.19
2023-03-24T22:48:56.072Z,100372.41
2023-03-24T22:51:25.476Z,100369.98
2023-03-24T22:53:55.086Z,100367.69
2023-03-24T22:56:24.929Z,100366.48
2023-03-24T22:58:55.021Z,100367.72
2023-03-24T23:01:26.289Z,100369.89
2023-03-24T23:03:55.726Z,100363.79
2023-03-24T23:06:26.950Z,100357.05
2023-03-24T23:08:56.512Z,100355.38
2023-03-24T23:11:26.133Z,100358.00
2023-03-24T23:14:04.691Z,100357.48
2023-03-24T23:16:34.651Z,100353.75
2023-03-24T23:19:04.821Z,100347.55
2023-03-24T23:21:34.246Z,100351.70
2023-03-24T23:24:03.749Z,100359.35
2023-03-24T23:26:33.512Z,100357.91
2023-03-24T23:29:02.939Z,100359.59
2023-03-24T23:31:32.418Z,100358.08
2023-03-24T23:34:04.369Z,100360.75
2023-03-24T23:36:50.548Z,100359.41
2023-03-24T23:39:20.509Z,100361.25
2023-03-24T23:41:49.995Z,100358.36
2023-03-24T23:44:19.694Z,100356.14
2023-03-24T23:46:48.898Z,100353.59
2023-03-24T23:49:18.491Z,100348.25
2023-03-24T23:51:47.696Z,100340.07
2023-03-24T23:54:17.104Z,100341.73
2023-03-24T23:56:46.999Z,100339.51
2023-03-24T23:59:16.337Z,100339.23
